Airfield :
LOGIN :

Register | Disclaimer

   EN    FR    IT 

 










Legend :    VFR   Marginal VFR   IFR   Intensive IFR   Very Intensive IFR
Visi :
Ceiling :
>= 8 km
>= 3000ft
5 to 8 km
1000 to 3000 ft
1500m to 5 km
500 to 1000 ft
800 to 1500m
200 to 500 ft
< 800m
< 200 ft
Symbols :   Thunderstorms  Fog  Heavy snow  Heavy precipitations  Wind > 20 kt
SIGMETs :     Misc.  Thunderstorms  Icing  Turbulence  Mountain Waves  Volcanic Ashes






- Airport Elevation : 183 ft
- IATA code : HAJ


EDDV - Hanover/Langenhagen Int.

CURRENT METAR :
  • 282250Z 20011KT 170V240 9999 SCT032 BKN040 12/07 Q1006

EXPIRED METARs :
  • 282220Z 20009KT 170V230 9999 -SHRA FEW032 BKN035 12/07 Q1006
  • 282150Z 20009KT 170V230 9999 -SHRA FEW032 BKN035 12/07 Q1006
  • 282120Z 21012KT 170V240 9999 FEW040 BKN044 12/06 Q1007
  • 282050Z 20011KT 170V230 9999 FEW042 12/06 Q1007 NOSIG
  • 282020Z 20010KT 160V220 9999 FEW045 13/06 Q1007 NOSIG
  • 281950Z 20011KT 170V240 CAVOK 12/05 Q1007 NOSIG

TAF TAF EDDV
Valid from the 28 at 18:00 until the 29 at 18:00 UTC


281700Z 2818/2918 21008KT 9999 SCT030
PROB30
TEMPO 2818/2903 23015G25KT SHRA BKN020CB
BECMG 2907/2909 26015G25KT
BECMG 2914/2916 23008KT



MET'MAP, your aeronautical weather chart ! - Copyright ORBIFLY December 2007 - Disclaimer

ORBIFLY MET'MAP TEAM :

Programming & Development : Alexandra Zaïnal
Concept & original design : Baudouin d'Aumeries
Assistance for programming : Marc-Olivier Méhu
Technical & hardware support : Manuel Goepfert

Contact : metmap@orbifly.com




SOURCES & CREDITS :

   NOAA